createdAt,value
2022-12-18T00:00:13.407Z,-10.68
2022-12-18T00:01:13.369Z,-10.68
2022-12-18T00:02:13.377Z,-10.68
2022-12-18T00:03:13.578Z,-10.70
2022-12-18T00:04:13.408Z,-10.73
2022-12-18T00:05:13.350Z,-10.76
2022-12-18T00:06:13.408Z,-10.77
2022-12-18T00:07:13.530Z,-10.81
2022-12-18T00:08:13.305Z,-10.85
2022-12-18T00:09:13.257Z,-10.90
2022-12-18T00:10:15.430Z,-10.96
2022-12-18T00:11:13.276Z,-11.01
2022-12-18T00:13:13.271Z,-11.06
2022-12-18T00:14:13.219Z,-11.06
2022-12-18T00:15:13.249Z,-11.01
2022-12-18T00:16:13.281Z,-10.98
2022-12-18T00:17:13.171Z,-10.94
2022-12-18T00:18:18.942Z,-10.96
2022-12-18T00:19:14.299Z,-10.94
2022-12-18T00:20:13.297Z,-10.92
2022-12-18T00:21:13.142Z,-10.94
2022-12-18T00:22:13.114Z,-10.98
2022-12-18T00:23:13.096Z,-10.99
2022-12-18T00:24:13.157Z,-11.02
2022-12-18T00:25:13.986Z,-11.03
2022-12-18T00:26:13.110Z,-11.03
2022-12-18T00:27:13.110Z,-11.03
2022-12-18T00:28:13.046Z,-11.06
2022-12-18T00:29:13.058Z,-11.09
2022-12-18T00:30:14.006Z,-11.09
2022-12-18T00:31:13.079Z,-11.12
2022-12-18T00:32:13.002Z,-11.12
2022-12-18T00:33:13.011Z,-11.16
2022-12-18T00:34:12.989Z,-11.21
2022-12-18T00:35:12.968Z,-11.23
2022-12-18T00:36:13.102Z,-11.26
2022-12-18T00:37:18.305Z,-11.30
2022-12-18T00:38:13.960Z,-11.31
2022-12-18T00:39:13.071Z,-11.35
2022-12-18T00:40:12.938Z,-11.38
2022-12-18T00:41:12.935Z,-11.35
2022-12-18T00:42:12.910Z,-11.34
2022-12-18T00:43:12.971Z,-11.30
2022-12-18T00:44:12.960Z,-11.29
2022-12-18T00:45:13.383Z,-11.24
2022-12-18T00:46:12.940Z,-11.23
2022-12-18T00:47:12.838Z,-11.23
2022-12-18T00:48:12.848Z,-11.20
2022-12-18T00:49:12.838Z,-11.19
2022-12-18T00:50:12.827Z,-11.17
2022-12-18T00:51:12.786Z,-11.20
2022-12-18T00:52:12.819Z,-11.23
2022-12-18T00:53:12.766Z,-11.23
2022-12-18T00:54:12.742Z,-11.26
2022-12-18T00:55:12.773Z,-11.27
2022-12-18T00:56:12.998Z,-11.27
2022-12-18T00:57:12.752Z,-11.29
2022-12-18T00:58:12.720Z,-11.29
2022-12-18T00:59:12.732Z,-11.31
2022-12-18T01:00:12.846Z,-11.40
2022-12-18T01:01:12.755Z,-11.38
2022-12-18T01:02:12.838Z,-11.35
2022-12-18T01:03:12.697Z,-11.30
2022-12-18T01:04:12.656Z,-11.29
2022-12-18T01:05:12.630Z,-11.30
2022-12-18T01:06:12.699Z,-11.29
2022-12-18T01:07:12.605Z,-11.29
2022-12-18T01:08:12.597Z,-11.27
2022-12-18T01:09:12.586Z,-11.27
2022-12-18T01:10:12.580Z,-11.31
2022-12-18T01:11:12.574Z,-11.31
2022-12-18T01:12:12.602Z,-11.30
2022-12-18T01:13:12.600Z,-11.29
2022-12-18T01:14:12.608Z,-11.29
2022-12-18T01:15:12.548Z,-11.26
2022-12-18T01:16:12.635Z,-11.24
2022-12-18T01:17:12.493Z,-11.24
2022-12-18T01:18:12.468Z,-11.23
2022-12-18T01:19:12.645Z,-11.24
2022-12-18T01:20:13.299Z,-11.24
2022-12-18T01:21:12.464Z,-11.24
2022-12-18T01:22:12.441Z,-11.29
2022-12-18T01:23:12.448Z,-11.30
2022-12-18T01:24:12.433Z,-11.31
2022-12-18T01:25:12.444Z,-11.31
2022-12-18T01:26:12.427Z,-11.35
2022-12-18T01:27:12.354Z,-11.40
2022-12-18T01:28:12.408Z,-11.42
2022-12-18T01:29:13.458Z,-11.48
2022-12-18T01:30:13.422Z,-11.52
2022-12-18T01:31:12.436Z,-11.56
2022-12-18T01:32:12.384Z,-11.62
2022-12-18T01:33:12.305Z,-11.66
2022-12-18T01:34:13.488Z,-11.72
2022-12-18T01:35:13.014Z,-11.74
2022-12-18T01:36:12.270Z,-11.77
2022-12-18T01:37:12.242Z,-11.80
2022-12-18T01:38:12.304Z,-11.79
2022-12-18T01:39:12.274Z,-11.76
2022-12-18T01:40:12.305Z,-11.72
2022-12-18T01:41:12.693Z,-11.66
2022-12-18T01:42:12.341Z,-11.56
2022-12-18T01:43:12.209Z,-11.52
2022-12-18T01:44:12.190Z,-11.50
2022-12-18T01:45:12.215Z,-11.50
2022-12-18T01:46:12.244Z,-11.50
2022-12-18T01:47:12.214Z,-11.48
2022-12-18T01:48:12.124Z,-11.53
2022-12-18T01:49:12.142Z,-11.55
2022-12-18T01:50:12.231Z,-11.58
2022-12-18T01:51:12.118Z,-11.61
2022-12-18T01:52:12.315Z,-11.61
2022-12-18T01:53:12.098Z,-11.63
2022-12-18T01:54:12.094Z,-11.63
2022-12-18T01:55:12.029Z,-11.65
2022-12-18T01:56:12.105Z,-11.66
2022-12-18T01:57:12.038Z,-11.65
2022-12-18T01:58:12.041Z,-11.73
2022-12-18T01:59:12.196Z,-11.73
2022-12-18T02:00:11.996Z,-11.77
2022-12-18T02:01:12.254Z,-11.82
2022-12-18T02:02:12.108Z,-11.86
2022-12-18T02:03:12.028Z,-11.90
2022-12-18T02:04:11.938Z,-11.92
2022-12-18T02:05:13.073Z,-11.94
2022-12-18T02:06:11.958Z,-11.92
2022-12-18T02:07:12.049Z,-11.95
2022-12-18T02:08:11.886Z,-11.97
2022-12-18T02:09:11.866Z,-11.97
2022-12-18T02:10:11.907Z,-11.97
2022-12-18T02:11:11.893Z,-11.95
2022-12-18T02:12:12.913Z,-11.87
2022-12-18T02:13:11.846Z,-11.86
2022-12-18T02:14:12.778Z,-11.83
2022-12-18T02:15:11.985Z,-11.84
2022-12-18T02:16:11.888Z,-11.86
2022-12-18T02:17:11.814Z,-11.87
2022-12-18T02:18:11.854Z,-11.83
2022-12-18T02:19:11.813Z,-11.79
2022-12-18T02:20:11.817Z,-11.76
2022-12-18T02:21:11.737Z,-11.72
2022-12-18T02:22:11.735Z,-11.68
2022-12-18T02:23:11.745Z,-11.66
2022-12-18T02:24:11.772Z,-11.63
2022-12-18T02:25:12.727Z,-11.62
2022-12-18T02:26:11.703Z,-11.63
2022-12-18T02:27:11.770Z,-11.62
2022-12-18T02:28:11.677Z,-11.59
2022-12-18T02:29:11.875Z,-11.55
2022-12-18T02:30:12.732Z,-11.58
2022-12-18T02:31:11.736Z,-11.53
2022-12-18T02:32:11.611Z,-11.53
2022-12-18T02:33:11.602Z,-11.53
2022-12-18T02:34:11.607Z,-11.53
2022-12-18T02:35:11.729Z,-11.56
2022-12-18T02:36:11.584Z,-11.56
2022-12-18T02:37:11.571Z,-11.58
2022-12-18T02:38:11.854Z,-11.56
2022-12-18T02:39:11.537Z,-11.53
2022-12-18T02:40:11.566Z,-11.55
2022-12-18T02:41:11.516Z,-11.55
2022-12-18T02:42:11.544Z,-11.59
2022-12-18T02:43:11.514Z,-11.61
2022-12-18T02:44:11.508Z,-11.59
2022-12-18T02:45:11.515Z,-11.61
2022-12-18T02:46:11.530Z,-11.62
2022-12-18T02:47:11.448Z,-11.65
2022-12-18T02:48:11.458Z,-11.68
2022-12-18T02:49:11.420Z,-11.68
2022-12-18T02:50:11.482Z,-11.68
2022-12-18T02:51:11.666Z,-11.73
2022-12-18T02:52:11.405Z,-11.79
2022-12-18T02:53:11.473Z,-11.77
2022-12-18T02:54:11.386Z,-11.80
2022-12-18T02:55:12.366Z,-11.83
2022-12-18T02:56:11.387Z,-11.90
2022-12-18T02:57:11.356Z,-11.91
2022-12-18T02:58:11.320Z,-11.90
2022-12-18T02:59:11.324Z,-11.74
2022-12-18T03:00:11.487Z,-11.68
2022-12-18T03:01:11.396Z,-11.63
2022-12-18T03:02:11.548Z,-11.63
2022-12-18T03:03:11.410Z,-11.63
2022-12-18T03:04:11.266Z,-11.65
2022-12-18T03:05:11.471Z,-11.68
2022-12-18T03:06:11.270Z,-11.69
2022-12-18T03:07:11.214Z,-11.73
2022-12-18T03:08:11.210Z,-11.77
2022-12-18T03:09:11.184Z,-11.83
2022-12-18T03:10:11.245Z,-11.84
2022-12-18T03:11:11.224Z,-11.84
2022-12-18T03:12:11.273Z,-11.84
2022-12-18T03:13:11.156Z,-11.86
2022-12-18T03:14:11.133Z,-11.90
2022-12-18T03:15:17.277Z,-11.90
2022-12-18T03:16:12.165Z,-11.95
2022-12-18T03:17:11.508Z,-11.95
2022-12-18T03:18:11.099Z,-11.97
2022-12-18T03:19:11.073Z,-11.97
2022-12-18T03:20:12.018Z,-11.95
2022-12-18T03:21:11.066Z,-11.95
2022-12-18T03:22:11.194Z,-11.95
2022-12-18T03:23:11.023Z,-11.97
2022-12-18T03:24:11.276Z,-11.95
2022-12-18T03:25:10.998Z,-11.98
2022-12-18T03:26:11.036Z,-11.98
2022-12-18T03:27:11.055Z,-12.00
2022-12-18T03:28:11.065Z,-11.98
2022-12-18T03:29:11.033Z,-12.00
2022-12-18T03:30:11.048Z,-11.98
2022-12-18T03:31:12.088Z,-12.02
2022-12-18T03:32:10.967Z,-12.02
2022-12-18T03:33:10.948Z,-12.08
2022-12-18T03:34:10.926Z,-12.05
2022-12-18T03:35:12.117Z,-12.08
2022-12-18T03:36:11.521Z,-12.08
2022-12-18T03:37:10.949Z,-12.08
2022-12-18T03:38:10.865Z,-12.08
2022-12-18T03:39:10.883Z,-12.02
2022-12-18T03:40:10.862Z,-12.00
2022-12-18T03:41:12.045Z,-12.02
2022-12-18T03:42:10.803Z,-12.02
2022-12-18T03:43:10.865Z,-12.00
2022-12-18T03:44:11.511Z,-11.92
2022-12-18T03:45:10.892Z,-11.90
2022-12-18T03:46:10.869Z,-11.87
2022-12-18T03:47:11.525Z,-11.86
2022-12-18T03:48:11.885Z,-11.84
2022-12-18T03:49:11.793Z,-11.84
2022-12-18T03:50:12.951Z,-11.84
2022-12-18T03:51:10.883Z,-11.83
2022-12-18T03:52:10.752Z,-11.82
2022-12-18T03:53:10.737Z,-11.84
2022-12-18T03:54:11.672Z,-11.82
2022-12-18T03:55:10.754Z,-11.79
2022-12-18T03:56:10.644Z,-11.76
2022-12-18T03:57:10.999Z,-11.77
2022-12-18T03:58:10.631Z,-11.80
2022-12-18T03:59:10.760Z,-11.82
2022-12-18T04:00:10.648Z,-11.84
2022-12-18T04:01:11.036Z,-11.86
2022-12-18T04:02:10.765Z,-11.83
2022-12-18T04:03:10.644Z,-11.90
2022-12-18T04:04:10.639Z,-11.92
2022-12-18T04:05:11.793Z,-11.92
2022-12-18T04:06:11.305Z,-11.87
2022-12-18T04:07:10.603Z,-11.83
2022-12-18T04:08:11.502Z,-11.77
2022-12-18T04:09:10.574Z,-11.73
2022-12-18T04:10:10.506Z,-11.66
2022-12-18T04:11:10.527Z,-11.62
2022-12-18T04:12:10.530Z,-11.61
2022-12-18T04:13:11.539Z,-11.61
2022-12-18T04:14:14.429Z,-11.53
2022-12-18T04:15:12.435Z,-11.48
2022-12-18T04:16:10.621Z,-11.47
2022-12-18T04:17:10.459Z,-11.45
2022-12-18T04:18:10.443Z,-11.42
2022-12-18T04:19:10.552Z,-11.41
2022-12-18T04:20:11.373Z,-11.40
2022-12-18T04:21:10.462Z,-11.44
2022-12-18T04:22:11.180Z,-11.42
2022-12-18T04:23:10.335Z,-11.44
2022-12-18T04:24:11.339Z,-11.44
2022-12-18T04:25:11.412Z,-11.47
2022-12-18T04:26:10.333Z,-11.42
2022-12-18T04:27:10.457Z,-11.44
2022-12-18T04:28:10.290Z,-11.41
2022-12-18T04:29:10.281Z,-11.41
2022-12-18T04:30:10.468Z,-11.45
2022-12-18T04:31:10.326Z,-11.45
2022-12-18T04:32:10.384Z,-11.47
2022-12-18T04:33:10.287Z,-11.45
2022-12-18T04:34:10.245Z,-11.48
2022-12-18T04:35:10.262Z,-11.53
2022-12-18T04:36:11.173Z,-11.58
2022-12-18T04:37:10.402Z,-11.63
2022-12-18T04:38:10.289Z,-11.68
2022-12-18T04:39:10.163Z,-11.73
2022-12-18T04:40:10.995Z,-11.74
2022-12-18T04:41:10.324Z,-11.73
2022-12-18T04:42:10.203Z,-11.74
2022-12-18T04:43:10.209Z,-11.77
2022-12-18T04:44:10.123Z,-11.77
2022-12-18T04:45:10.094Z,-11.82
2022-12-18T04:46:10.776Z,-11.83
2022-12-18T04:47:10.114Z,-11.86
2022-12-18T04:48:10.106Z,-11.87
2022-12-18T04:49:10.042Z,-11.91
2022-12-18T04:50:10.899Z,-11.94
2022-12-18T04:51:10.093Z,-11.92
2022-12-18T04:52:10.083Z,-11.94
2022-12-18T04:53:10.197Z,-11.92
2022-12-18T04:54:10.064Z,-11.90
2022-12-18T04:55:10.025Z,-11.91
2022-12-18T04:56:10.009Z,-11.87
2022-12-18T04:57:10.312Z,-11.84
2022-12-18T04:58:09.957Z,-11.83
2022-12-18T04:59:10.102Z,-11.82
2022-12-18T05:00:09.978Z,-11.82
2022-12-18T05:01:09.921Z,-11.82
2022-12-18T05:02:10.111Z,-11.80
2022-12-18T05:03:09.938Z,-11.77
2022-12-18T05:04:09.993Z,-11.80
2022-12-18T05:05:09.902Z,-11.82
2022-12-18T05:06:11.054Z,-11.83
2022-12-18T05:07:09.834Z,-11.84
2022-12-18T05:08:10.089Z,-11.82
2022-12-18T05:09:09.842Z,-11.86
2022-12-18T05:10:09.953Z,-11.84
2022-12-18T05:11:10.628Z,-11.83
2022-12-18T05:12:09.882Z,-11.83
2022-12-18T05:13:09.935Z,-11.83
2022-12-18T05:14:09.838Z,-11.83
2022-12-18T05:15:09.769Z,-11.80
2022-12-18T05:16:09.810Z,-11.73
2022-12-18T05:17:09.844Z,-11.73
2022-12-18T05:18:10.693Z,-11.74
2022-12-18T05:19:09.777Z,-11.73
2022-12-18T05:20:10.782Z,-11.74
2022-12-18T05:21:09.745Z,-11.74
2022-12-18T05:22:09.684Z,-11.74
2022-12-18T05:23:09.964Z,-11.79
2022-12-18T05:24:09.658Z,-11.76
2022-12-18T05:25:09.721Z,-11.76
2022-12-18T05:26:09.804Z,-11.77
2022-12-18T05:27:09.691Z,-11.82
2022-12-18T05:28:09.589Z,-11.82
2022-12-18T05:29:09.610Z,-11.83
2022-12-18T05:30:09.575Z,-11.84
2022-12-18T05:31:10.358Z,-11.86
2022-12-18T05:32:09.540Z,-11.87
2022-12-18T05:33:10.539Z,-11.91
2022-12-18T05:34:09.720Z,-11.90
2022-12-18T05:35:09.543Z,-11.92
2022-12-18T05:36:09.593Z,-11.92
2022-12-18T05:37:09.535Z,-11.95
2022-12-18T05:38:09.930Z,-11.97
2022-12-18T05:39:09.480Z,-11.98
2022-12-18T05:40:09.518Z,-11.98
2022-12-18T05:41:09.513Z,-12.02
2022-12-18T05:42:09.554Z,-12.02
2022-12-18T05:43:10.582Z,-12.08
2022-12-18T05:44:10.473Z,-12.09
2022-12-18T05:45:09.486Z,-12.12
2022-12-18T05:46:09.490Z,-12.11
2022-12-18T05:47:09.415Z,-12.09
2022-12-18T05:48:09.386Z,-12.08
2022-12-18T05:49:10.359Z,-12.08
2022-12-18T05:50:10.414Z,-12.01
2022-12-18T05:51:09.429Z,-11.95
2022-12-18T05:52:09.338Z,-11.83
2022-12-18T05:53:09.847Z,-11.68
2022-12-18T05:54:09.325Z,-11.63
2022-12-18T05:55:09.333Z,-11.63
2022-12-18T05:56:09.336Z,-11.66
2022-12-18T05:57:09.273Z,-11.66
2022-12-18T05:58:09.270Z,-11.69
2022-12-18T05:59:09.271Z,-11.68
2022-12-18T06:00:09.273Z,-11.65
2022-12-18T06:01:10.387Z,-11.65
2022-12-18T06:02:09.343Z,-11.66
2022-12-18T06:03:09.425Z,-11.68
2022-12-18T06:04:09.362Z,-11.69
2022-12-18T06:05:09.203Z,-11.72
2022-12-18T06:06:10.427Z,-11.74
2022-12-18T06:07:09.153Z,-11.74
2022-12-18T06:08:09.324Z,-11.74
2022-12-18T06:09:09.227Z,-11.76
2022-12-18T06:10:09.170Z,-11.74
2022-12-18T06:11:09.111Z,-11.76
2022-12-18T06:12:09.128Z,-11.77
2022-12-18T06:13:09.092Z,-11.82
2022-12-18T06:14:09.108Z,-11.83
2022-12-18T06:15:09.130Z,-11.90
2022-12-18T06:16:09.144Z,-11.95
2022-12-18T06:17:09.063Z,-11.97
2022-12-18T06:18:09.029Z,-12.01
2022-12-18T06:19:09.023Z,-12.02
2022-12-18T06:20:09.152Z,-12.05
2022-12-18T06:21:09.269Z,-12.11
2022-12-18T06:22:09.003Z,-12.18
2022-12-18T06:23:09.018Z,-12.22
2022-12-18T06:24:08.981Z,-12.30
2022-12-18T06:25:08.941Z,-12.34
2022-12-18T06:26:09.025Z,-12.38
2022-12-18T06:27:08.964Z,-12.44
2022-12-18T06:28:09.058Z,-12.52
2022-12-18T06:29:08.940Z,-12.58
2022-12-18T06:30:08.988Z,-12.64
2022-12-18T06:31:09.019Z,-12.69
2022-12-18T06:32:09.975Z,-12.72
2022-12-18T06:33:08.876Z,-12.75
2022-12-18T06:34:08.928Z,-12.77
2022-12-18T06:35:09.686Z,-12.79
2022-12-18T06:36:08.963Z,-12.77
2022-12-18T06:37:08.920Z,-12.79
2022-12-18T06:38:08.950Z,-12.80
2022-12-18T06:39:08.804Z,-12.84
2022-12-18T06:40:08.774Z,-12.84
2022-12-18T06:41:08.792Z,-12.86
2022-12-18T06:42:08.763Z,-12.82
2022-12-18T06:43:08.760Z,-12.77
2022-12-18T06:44:08.757Z,-12.77
2022-12-18T06:45:08.722Z,-12.79
2022-12-18T06:46:08.935Z,-12.82
2022-12-18T06:47:08.894Z,-12.79
2022-12-18T06:48:08.719Z,-12.73
2022-12-18T06:49:08.686Z,-12.76
2022-12-18T06:50:08.718Z,-12.79
2022-12-18T06:51:08.656Z,-12.77
2022-12-18T06:52:09.580Z,-12.82
2022-12-18T06:53:09.490Z,-12.86
2022-12-18T06:54:08.617Z,-12.88
2022-12-18T06:55:08.757Z,-12.84
2022-12-18T06:56:10.520Z,-12.72
2022-12-18T06:57:09.602Z,-12.61
2022-12-18T06:58:08.595Z,-12.49
2022-12-18T06:59:08.721Z,-12.40
2022-12-18T07:00:09.327Z,-12.40
2022-12-18T07:01:08.600Z,-12.43
2022-12-18T07:02:08.711Z,-12.43
2022-12-18T07:03:08.581Z,-12.49
2022-12-18T07:04:08.510Z,-12.55
2022-12-18T07:05:10.919Z,-12.58
2022-12-18T07:06:08.627Z,-12.64
2022-12-18T07:07:08.519Z,-12.69
2022-12-18T07:08:08.497Z,-12.75
2022-12-18T07:09:08.519Z,-12.79
2022-12-18T07:10:08.473Z,-12.84
2022-12-18T07:11:08.431Z,-12.93
2022-12-18T07:12:08.450Z,-13.00
2022-12-18T07:13:08.724Z,-13.06
2022-12-18T07:14:08.479Z,-13.11
2022-12-18T07:15:08.377Z,-13.14
2022-12-18T07:16:15.026Z,-13.15
2022-12-18T07:17:09.547Z,-13.14
2022-12-18T07:18:08.430Z,-13.06
2022-12-18T07:19:08.406Z,-12.97
2022-12-18T07:20:08.338Z,-12.93
2022-12-18T07:21:08.319Z,-12.90
2022-12-18T07:22:08.586Z,-12.88
2022-12-18T07:23:08.393Z,-12.86
2022-12-18T07:24:08.327Z,-12.86
2022-12-18T07:25:08.311Z,-12.90
2022-12-18T07:26:08.281Z,-12.88
2022-12-18T07:27:08.266Z,-12.88
2022-12-18T07:28:10.569Z,-12.91
2022-12-18T07:29:09.309Z,-12.90
2022-12-18T07:30:08.369Z,-12.91
2022-12-18T07:31:09.430Z,-12.90
2022-12-18T07:32:08.240Z,-12.91
2022-12-18T07:33:08.520Z,-12.93
2022-12-18T07:34:08.235Z,-12.94
2022-12-18T07:35:08.183Z,-12.97
2022-12-18T07:36:08.165Z,-13.00
2022-12-18T07:37:08.128Z,-13.01
2022-12-18T07:38:08.180Z,-13.04
2022-12-18T07:39:08.190Z,-13.05
2022-12-18T07:40:08.151Z,-13.05
2022-12-18T07:41:08.131Z,-13.06
2022-12-18T07:42:08.075Z,-13.04
2022-12-18T07:43:08.121Z,-13.01
2022-12-18T07:44:08.089Z,-12.96
2022-12-18T07:45:08.111Z,-12.96
2022-12-18T07:46:08.656Z,-12.93
2022-12-18T07:47:12.029Z,-12.90
2022-12-18T07:48:08.823Z,-12.88
2022-12-18T07:49:08.089Z,-12.86
2022-12-18T07:50:08.008Z,-12.86
2022-12-18T07:51:08.080Z,-12.84
2022-12-18T07:52:08.006Z,-12.84
2022-12-18T07:53:07.971Z,-12.87
2022-12-18T07:54:08.032Z,-12.87
2022-12-18T07:55:07.974Z,-12.86
2022-12-18T07:57:16.531Z,-12.86
2022-12-18T07:58:08.920Z,-12.76
2022-12-18T07:59:07.889Z,-12.75
2022-12-18T08:00:08.348Z,-12.72
2022-12-18T08:01:08.005Z,-12.69
2022-12-18T08:02:08.048Z,-12.66
2022-12-18T08:03:07.926Z,-12.61
2022-12-18T08:04:07.848Z,-12.55
2022-12-18T08:05:07.841Z,-12.52
2022-12-18T08:06:07.901Z,-12.44
2022-12-18T08:07:07.853Z,-12.40
2022-12-18T08:08:08.946Z,-12.34
2022-12-18T08:09:07.817Z,-12.31
2022-12-18T08:10:07.761Z,-12.25
2022-12-18T08:11:07.784Z,-12.21
2022-12-18T08:12:07.747Z,-12.18
2022-12-18T08:13:07.768Z,-12.16
2022-12-18T08:14:07.751Z,-12.12
2022-12-18T08:15:07.749Z,-12.08
2022-12-18T08:16:07.970Z,-12.02
2022-12-18T08:17:07.707Z,-11.95
2022-12-18T08:18:12.664Z,-11.91
2022-12-18T08:19:08.696Z,-11.83
2022-12-18T08:20:07.642Z,-11.79
2022-12-18T08:21:07.667Z,-11.76
2022-12-18T08:22:07.662Z,-11.72
2022-12-18T08:23:07.667Z,-11.65
2022-12-18T08:24:07.646Z,-11.61
2022-12-18T08:25:07.627Z,-11.55
2022-12-18T08:26:08.751Z,-11.44
2022-12-18T08:28:08.578Z,-11.23
2022-12-18T08:29:07.557Z,-11.14
2022-12-18T08:30:07.568Z,-11.03
2022-12-18T08:31:07.635Z,-10.96
2022-12-18T08:32:07.631Z,-10.92
2022-12-18T08:33:08.587Z,-10.88
2022-12-18T08:34:07.537Z,-10.85
2022-12-18T08:35:07.637Z,-10.79
2022-12-18T08:36:07.492Z,-10.69
2022-12-18T08:37:07.466Z,-10.65
2022-12-18T08:38:07.457Z,-10.59
2022-12-18T08:39:07.427Z,-10.58
2022-12-18T08:40:07.439Z,-10.51
2022-12-18T08:41:07.406Z,-10.47
2022-12-18T08:42:10.251Z,-10.44
2022-12-18T08:43:07.403Z,-10.38
2022-12-18T08:44:07.407Z,-10.30
2022-12-18T08:45:07.381Z,-10.26
2022-12-18T08:46:07.425Z,-10.23
2022-12-18T08:47:07.603Z,-10.21
2022-12-18T08:48:07.361Z,-10.21
2022-12-18T08:49:07.319Z,-10.16
2022-12-18T08:50:07.385Z,-10.12
2022-12-18T08:51:07.304Z,-10.08
2022-12-18T08:52:07.295Z,-10.05
2022-12-18T08:53:07.295Z,-10.00
2022-12-18T08:54:07.259Z,-9.94
2022-12-18T08:55:07.246Z,-9.91
2022-12-18T08:56:07.256Z,-9.85
2022-12-18T08:57:07.239Z,-9.85
2022-12-18T08:58:07.247Z,-9.79
2022-12-18T08:59:07.199Z,-9.71
2022-12-18T09:00:07.228Z,-9.67
2022-12-18T09:01:07.206Z,-9.60
2022-12-18T09:02:07.529Z,-9.59
2022-12-18T09:03:07.301Z,-9.55
2022-12-18T09:04:07.621Z,-9.50
2022-12-18T09:05:07.179Z,-9.46
2022-12-18T09:06:07.117Z,-9.45
2022-12-18T09:07:07.706Z,-9.38
2022-12-18T09:08:07.153Z,-9.37
2022-12-18T09:09:07.116Z,-9.37
2022-12-18T09:10:07.108Z,-9.38
2022-12-18T09:11:07.085Z,-9.37
2022-12-18T09:12:07.086Z,-9.28
2022-12-18T09:13:07.043Z,-9.19
2022-12-18T09:14:07.078Z,-9.10
2022-12-18T09:15:07.050Z,-9.02
2022-12-18T09:16:07.013Z,-8.94
2022-12-18T09:17:07.049Z,-8.92
2022-12-18T09:18:06.977Z,-8.89
2022-12-18T09:19:07.014Z,-8.86
2022-12-18T09:20:07.014Z,-8.81
2022-12-18T09:21:06.981Z,-8.77
2022-12-18T09:22:06.954Z,-8.73
2022-12-18T09:23:07.107Z,-8.68
2022-12-18T09:24:08.941Z,-8.68
2022-12-18T09:25:07.217Z,-8.65
2022-12-18T09:26:07.035Z,-8.59
2022-12-18T09:27:06.907Z,-8.59
2022-12-18T09:28:06.907Z,-8.59
2022-12-18T09:29:06.878Z,-8.62
2022-12-18T09:30:06.882Z,-8.62
2022-12-18T09:31:06.890Z,-8.63
2022-12-18T09:32:06.872Z,-8.63
2022-12-18T09:33:06.829Z,-8.58
2022-12-18T09:34:06.823Z,-8.55
2022-12-18T09:35:06.838Z,-8.52
2022-12-18T09:36:06.783Z,-8.48
2022-12-18T09:37:06.793Z,-8.47
2022-12-18T09:38:06.820Z,-8.45
2022-12-18T09:39:08.797Z,-8.39
2022-12-18T09:40:06.749Z,-8.38
2022-12-18T09:41:06.764Z,-8.27
2022-12-18T09:42:06.744Z,-8.21
2022-12-18T09:43:08.266Z,-8.19
2022-12-18T09:44:06.695Z,-8.16
2022-12-18T09:45:07.875Z,-8.10
2022-12-18T09:46:06.894Z,-8.09
2022-12-18T09:47:06.715Z,-7.98
2022-12-18T09:48:06.755Z,-7.95
2022-12-18T09:49:06.636Z,-7.88
2022-12-18T09:50:06.613Z,-7.86
2022-12-18T09:51:06.628Z,-7.81
2022-12-18T09:52:06.642Z,-7.76
2022-12-18T09:53:06.595Z,-7.74
2022-12-18T09:54:06.615Z,-7.63
2022-12-18T09:55:06.544Z,-7.56
2022-12-18T09:56:06.595Z,-7.51
2022-12-18T09:57:06.564Z,-7.48
2022-12-18T09:58:06.536Z,-7.45
2022-12-18T09:59:06.519Z,-7.45
2022-12-18T10:00:06.548Z,-7.45
2022-12-18T10:01:06.573Z,-7.39
2022-12-18T10:02:06.565Z,-7.31
2022-12-18T10:03:06.623Z,-7.29
2022-12-18T10:04:06.520Z,-7.26
2022-12-18T10:05:06.485Z,-7.16
2022-12-18T10:06:06.447Z,-7.09
2022-12-18T10:07:09.319Z,-7.00
2022-12-18T10:08:06.507Z,-6.92
2022-12-18T10:09:06.451Z,-6.88
2022-12-18T10:10:06.463Z,-6.84
2022-12-18T10:11:06.400Z,-6.84
2022-12-18T10:12:06.400Z,-6.81
2022-12-18T10:13:06.323Z,-6.74
2022-12-18T10:14:06.322Z,-6.71
2022-12-18T10:15:06.326Z,-6.71
2022-12-18T10:16:06.384Z,-6.70
2022-12-18T10:17:06.297Z,-6.70
2022-12-18T10:18:06.338Z,-6.69
2022-12-18T10:19:06.282Z,-6.67
2022-12-18T10:20:06.293Z,-6.64
2022-12-18T10:21:06.310Z,-6.59
2022-12-18T10:22:06.262Z,-6.61
2022-12-18T10:23:06.404Z,-6.61
2022-12-18T10:24:06.243Z,-6.63
2022-12-18T10:25:06.227Z,-6.61
2022-12-18T10:26:06.249Z,-6.61
2022-12-18T10:27:06.245Z,-6.63
2022-12-18T10:28:06.197Z,-6.63
2022-12-18T10:29:06.186Z,-6.66
2022-12-18T10:30:06.241Z,-6.66
2022-12-18T10:31:06.140Z,-6.66
2022-12-18T10:32:06.167Z,-6.66
2022-12-18T10:33:06.098Z,-6.64
2022-12-18T10:34:06.106Z,-6.67
2022-12-18T10:35:06.117Z,-6.59
2022-12-18T10:36:06.099Z,-6.54
2022-12-18T10:37:06.067Z,-6.48
2022-12-18T10:38:06.075Z,-6.39
2022-12-18T10:39:06.075Z,-6.34
2022-12-18T10:40:06.086Z,-6.30
2022-12-18T10:41:06.021Z,-6.27
2022-12-18T10:42:05.993Z,-6.27
2022-12-18T10:43:06.024Z,-6.21
2022-12-18T10:44:05.994Z,-6.16
2022-12-18T10:45:05.977Z,-6.13
2022-12-18T10:46:05.976Z,-6.13
2022-12-18T10:47:11.659Z,-6.13
2022-12-18T10:48:07.046Z,-6.13
2022-12-18T10:49:05.924Z,-6.12
2022-12-18T10:50:05.938Z,-6.12
2022-12-18T10:51:13.717Z,-6.12
2022-12-18T10:52:06.879Z,-6.09
2022-12-18T10:53:06.005Z,-6.05
2022-12-18T10:54:06.436Z,-6.00
2022-12-18T10:55:05.894Z,-5.97
2022-12-18T10:56:05.909Z,-5.91
2022-12-18T10:57:05.845Z,-5.88
2022-12-18T10:58:05.826Z,-5.84
2022-12-18T10:59:05.964Z,-5.77
2022-12-18T11:00:05.838Z,-5.73
2022-12-18T11:01:05.824Z,-5.73
2022-12-18T11:02:05.868Z,-5.69
2022-12-18T11:03:05.967Z,-5.67
2022-12-18T11:04:05.800Z,-5.62
2022-12-18T11:05:05.741Z,-5.58
2022-12-18T11:06:05.762Z,-5.56
2022-12-18T11:07:05.734Z,-5.55
2022-12-18T11:08:05.728Z,-5.54
2022-12-18T11:09:13.216Z,-5.54
2022-12-18T11:10:08.008Z,-5.55
2022-12-18T11:11:05.668Z,-5.55
2022-12-18T11:12:05.678Z,-5.52
2022-12-18T11:13:05.629Z,-5.54
2022-12-18T11:14:05.634Z,-5.55
2022-12-18T11:15:05.595Z,-5.52
2022-12-18T11:16:05.748Z,-5.51
2022-12-18T11:18:06.596Z,-5.41
2022-12-18T11:19:05.577Z,-5.41
2022-12-18T11:20:05.603Z,-5.35
2022-12-18T11:21:05.657Z,-5.27
2022-12-18T11:22:05.557Z,-5.26
2022-12-18T11:23:05.576Z,-5.23
2022-12-18T11:24:05.508Z,-5.20
2022-12-18T11:26:06.547Z,-5.08
2022-12-18T11:27:05.488Z,-5.04
2022-12-18T11:28:05.528Z,-5.04
2022-12-18T11:29:05.455Z,-5.03
2022-12-18T11:30:05.425Z,-5.04
2022-12-18T11:31:05.474Z,-5.04
2022-12-18T11:32:05.446Z,-5.05
2022-12-18T11:33:05.387Z,-5.04
2022-12-18T11:34:27.913Z,-5.04
2022-12-18T11:35:06.405Z,-5.05
2022-12-18T11:36:05.368Z,-5.08
2022-12-18T11:37:05.375Z,-5.07
2022-12-18T11:38:05.327Z,-5.05
2022-12-18T11:39:05.325Z,-5.04
2022-12-18T11:40:05.348Z,-5.03
2022-12-18T11:41:05.330Z,-5.00
2022-12-18T11:42:05.308Z,-4.97
2022-12-18T11:43:05.287Z,-4.89
2022-12-18T11:44:05.255Z,-4.86
2022-12-18T11:45:05.530Z,-4.85
2022-12-18T11:46:05.271Z,-4.80
2022-12-18T11:47:05.272Z,-4.77
2022-12-18T11:48:05.266Z,-4.69
2022-12-18T11:49:05.253Z,-4.65
2022-12-18T11:50:05.189Z,-4.61
2022-12-18T11:51:05.163Z,-4.58
2022-12-18T11:52:05.185Z,-4.57
2022-12-18T11:53:06.463Z,-4.57
2022-12-18T11:54:05.177Z,-4.57
2022-12-18T11:55:05.118Z,-4.58
2022-12-18T11:56:05.127Z,-4.57
2022-12-18T11:57:05.111Z,-4.54
2022-12-18T11:58:06.025Z,-4.46
2022-12-18T11:59:05.069Z,-4.44
2022-12-18T12:00:05.098Z,-4.47
2022-12-18T12:01:05.068Z,-4.50
2022-12-18T12:02:05.243Z,-4.50
2022-12-18T12:03:05.228Z,-4.48
2022-12-18T12:04:05.076Z,-4.48
2022-12-18T12:05:05.986Z,-4.51
2022-12-18T12:06:05.006Z,-4.51
2022-12-18T12:07:05.074Z,-4.50
2022-12-18T12:08:04.981Z,-4.47
2022-12-18T12:09:05.066Z,-4.43
2022-12-18T12:10:04.944Z,-4.38
2022-12-18T12:11:04.966Z,-4.38
2022-12-18T12:12:04.910Z,-4.38
2022-12-18T12:13:04.937Z,-4.40
2022-12-18T12:14:04.957Z,-4.38
2022-12-18T12:15:04.943Z,-4.41
2022-12-18T12:16:04.925Z,-4.43
2022-12-18T12:17:05.027Z,-4.44
2022-12-18T12:18:10.941Z,-4.44
2022-12-18T12:19:05.869Z,-4.41
2022-12-18T12:20:04.841Z,-4.33
2022-12-18T12:21:04.814Z,-4.26
2022-12-18T12:22:04.817Z,-4.19
2022-12-18T12:23:04.809Z,-4.12
2022-12-18T12:24:04.852Z,-4.07
2022-12-18T12:25:04.811Z,-4.04
2022-12-18T12:26:04.798Z,-4.04
2022-12-18T12:27:05.506Z,-4.05
2022-12-18T12:28:05.175Z,-3.99
2022-12-18T12:29:04.750Z,-3.98
2022-12-18T12:30:04.715Z,-3.93
2022-12-18T12:31:05.748Z,-3.87
2022-12-18T12:32:04.785Z,-3.86
2022-12-18T12:33:04.708Z,-3.76
2022-12-18T12:34:04.664Z,-3.68
2022-12-18T12:35:09.594Z,-3.62
2022-12-18T12:36:05.752Z,-3.60
2022-12-18T12:37:04.647Z,-3.56
2022-12-18T12:38:04.775Z,-3.51
2022-12-18T12:39:04.605Z,-3.49
2022-12-18T12:40:20.560Z,-3.44